Voluntown, Connecticut
Current Conditions -  °F | °C
As of 9:53 PM on Saturday 25 Oct 2014 (Local Time) from KWST Reporting Station
Clear Clear  
Wind Chill: 60°   Ceiling: Unl
Heat Index: 60°   Visibility: 10mi
Dew Point: 50°   Wind: 9mph
Humidity: 69%   Direction: 240°WSW
Pressure: 29.59"   Gusts: NA
Location:  41.57°N, 71.87°W
Report Text: KWST 260153Z AUTO 24008KT 10SM CLR 16/10 A2959 RMK AO2 SLP019 T01560100
Loading
Personal Weather Stations






























Interactive Weather Map
Tropical Storm Tracking
New forecast layout! Learn more

10-Day Weather Forecast

Advertisements
Track Severe Weather on mobile